createdAt,value
2023-01-17T00:01:46.515Z,6.54
2023-01-17T00:04:31.448Z,6.53
2023-01-17T00:07:16.221Z,6.51
2023-01-17T00:09:54.526Z,6.48
2023-01-17T00:12:21.648Z,6.47
2023-01-17T00:14:48.723Z,6.46
2023-01-17T00:17:15.889Z,6.44
2023-01-17T00:20:01.195Z,6.44
2023-01-17T00:22:48.545Z,6.44
2023-01-17T00:25:38.829Z,6.44
2023-01-17T00:28:06.175Z,6.43
2023-01-17T00:30:32.645Z,6.43
2023-01-17T00:32:59.054Z,6.44
2023-01-17T00:35:27.455Z,6.44
2023-01-17T00:38:06.521Z,6.46
2023-01-17T00:40:34.738Z,6.46
2023-01-17T00:43:20.148Z,6.47
2023-01-17T00:46:05.894Z,6.48
2023-01-17T00:48:51.797Z,6.49
2023-01-17T00:51:37.577Z,6.49
2023-01-17T00:54:23.066Z,6.50
2023-01-17T00:57:07.827Z,6.50
2023-01-17T00:59:52.751Z,6.50
2023-01-17T01:02:37.668Z,6.50
2023-01-17T01:05:23.258Z,6.51
2023-01-17T01:08:08.693Z,6.51
2023-01-17T01:10:53.276Z,6.52
2023-01-17T01:13:42.640Z,6.53
2023-01-17T01:16:27.594Z,6.52
2023-01-17T01:19:12.896Z,6.52
2023-01-17T01:21:57.792Z,6.51
2023-01-17T01:24:42.486Z,6.49
2023-01-17T01:27:27.300Z,6.49
2023-01-17T01:30:12.153Z,6.48
2023-01-17T01:32:56.924Z,6.46
2023-01-17T01:35:23.564Z,6.48
2023-01-17T01:37:49.999Z,6.47
2023-01-17T01:40:18.871Z,6.48
2023-01-17T01:42:57.827Z,6.50
2023-01-17T01:45:27.085Z,6.50
2023-01-17T01:48:07.276Z,6.52
2023-01-17T01:50:36.128Z,6.52
2023-01-17T01:53:05.426Z,6.52
2023-01-17T01:55:39.149Z,6.52
2023-01-17T01:58:14.791Z,6.53
2023-01-17T02:00:42.032Z,6.52
2023-01-17T02:03:13.897Z,6.52
2023-01-17T02:05:42.452Z,6.52
2023-01-17T02:08:11.879Z,6.53
2023-01-17T02:10:40.694Z,6.52
2023-01-17T02:13:09.189Z,6.52
2023-01-17T02:15:57.543Z,6.52
2023-01-17T02:18:55.500Z,6.53
2023-01-17T02:21:25.934Z,6.52
2023-01-17T02:24:38.081Z,6.52
2023-01-17T02:27:07.767Z,6.52
2023-01-17T02:29:52.890Z,6.50
2023-01-17T02:32:50.662Z,6.50
2023-01-17T02:35:28.577Z,6.49
2023-01-17T02:38:32.649Z,6.48
2023-01-17T02:41:05.496Z,6.46
2023-01-17T02:43:32.834Z,6.45
2023-01-17T02:45:59.230Z,6.42
2023-01-17T02:48:30.705Z,6.42
2023-01-17T02:51:12.925Z,6.38
2023-01-17T02:53:53.131Z,6.35
2023-01-17T02:56:32.601Z,6.32
2023-01-17T02:59:17.423Z,6.28
2023-01-17T03:01:46.812Z,6.24
2023-01-17T03:04:24.216Z,6.18
2023-01-17T03:07:09.444Z,6.13
2023-01-17T03:09:37.302Z,6.07
2023-01-17T03:12:04.300Z,6.02
2023-01-17T03:14:31.550Z,5.97
2023-01-17T03:16:58.142Z,5.90
2023-01-17T03:19:24.503Z,5.85
2023-01-17T03:21:50.838Z,5.80
2023-01-17T03:24:17.191Z,5.75
2023-01-17T03:26:47.801Z,5.69
2023-01-17T03:29:16.387Z,5.64
2023-01-17T03:31:42.786Z,5.60
2023-01-17T03:34:09.261Z,5.56
2023-01-17T03:36:35.683Z,5.52
2023-01-17T03:39:02.829Z,5.47
2023-01-17T03:41:29.365Z,5.45
2023-01-17T03:43:55.808Z,5.41
2023-01-17T03:46:28.489Z,5.40
2023-01-17T03:48:54.915Z,5.35
2023-01-17T03:51:21.331Z,5.31
2023-01-17T03:53:47.804Z,5.23
2023-01-17T03:56:14.520Z,5.14
2023-01-17T03:58:41.081Z,5.04
2023-01-17T04:01:07.895Z,4.95
2023-01-17T04:03:34.399Z,4.84
2023-01-17T04:06:00.806Z,4.76
2023-01-17T04:08:27.284Z,4.70
2023-01-17T04:10:53.591Z,4.65
2023-01-17T04:13:19.958Z,4.59
2023-01-17T04:15:48.928Z,4.57
2023-01-17T04:18:18.031Z,4.55
2023-01-17T04:20:44.517Z,4.53
2023-01-17T04:23:10.893Z,4.53
2023-01-17T04:25:37.409Z,4.52
2023-01-17T04:28:04.295Z,4.51
2023-01-17T04:30:32.294Z,4.52
2023-01-17T04:33:00.096Z,4.51
2023-01-17T04:35:26.742Z,4.49
2023-01-17T04:37:53.162Z,4.47
2023-01-17T04:40:19.647Z,4.45
2023-01-17T04:42:46.261Z,4.43
2023-01-17T04:45:13.473Z,4.38
2023-01-17T04:47:40.256Z,4.36
2023-01-17T04:50:07.530Z,4.31
2023-01-17T04:52:33.961Z,4.29
2023-01-17T04:55:00.411Z,4.27
2023-01-17T04:57:27.062Z,4.26
2023-01-17T04:59:53.609Z,4.23
2023-01-17T05:02:20.041Z,4.22
2023-01-17T05:04:46.383Z,4.22
2023-01-17T05:07:13.333Z,4.19
2023-01-17T05:09:39.736Z,4.18
2023-01-17T05:12:06.284Z,4.16
2023-01-17T05:14:34.226Z,4.16
2023-01-17T05:17:00.930Z,4.16
2023-01-17T05:19:27.355Z,4.16
2023-01-17T05:21:53.712Z,4.17
2023-01-17T05:24:20.423Z,4.19
2023-01-17T05:26:54.463Z,4.21
2023-01-17T05:29:21.505Z,4.24
2023-01-17T05:31:47.871Z,4.26
2023-01-17T05:34:14.294Z,4.30
2023-01-17T05:36:41.177Z,4.32
2023-01-17T05:39:07.625Z,4.35
2023-01-17T05:41:33.961Z,4.37
2023-01-17T05:44:00.399Z,4.39
2023-01-17T05:46:26.805Z,4.43
2023-01-17T05:48:53.174Z,4.45
2023-01-17T05:51:19.480Z,4.47
2023-01-17T05:53:45.890Z,4.50
2023-01-17T05:56:12.250Z,4.51
2023-01-17T05:58:39.967Z,4.53
2023-01-17T06:01:06.709Z,4.56
2023-01-17T06:03:33.053Z,4.58
2023-01-17T06:05:59.384Z,4.61
2023-01-17T06:08:25.775Z,4.62
2023-01-17T06:10:52.099Z,4.64
2023-01-17T06:13:21.765Z,4.67
2023-01-17T06:15:48.619Z,4.69
2023-01-17T06:18:16.808Z,4.71
2023-01-17T06:20:43.764Z,4.73
2023-01-17T06:23:12.735Z,4.74
2023-01-17T06:25:43.487Z,4.76
2023-01-17T06:28:11.454Z,4.77
2023-01-17T06:30:37.892Z,4.77
2023-01-17T06:33:05.046Z,4.78
2023-01-17T06:35:31.766Z,4.79
2023-01-17T06:37:59.735Z,4.81
2023-01-17T06:40:27.726Z,4.81
2023-01-17T06:42:54.215Z,4.82
2023-01-17T06:45:21.020Z,4.82
2023-01-17T06:47:47.420Z,4.83
2023-01-17T06:50:14.816Z,4.83
2023-01-17T06:52:41.953Z,4.83
2023-01-17T06:55:09.191Z,4.83
2023-01-17T06:57:35.858Z,4.83
2023-01-17T07:00:03.916Z,4.83
2023-01-17T07:02:30.310Z,4.83
2023-01-17T07:04:56.676Z,4.83
2023-01-17T07:07:23.000Z,4.82
2023-01-17T07:09:49.344Z,4.80
2023-01-17T07:12:15.672Z,4.76
2023-01-17T07:14:42.076Z,4.72
2023-01-17T07:17:08.404Z,4.66
2023-01-17T07:19:34.756Z,4.59
2023-01-17T07:22:01.139Z,4.53
2023-01-17T07:24:27.610Z,4.45
2023-01-17T07:26:53.994Z,4.38
2023-01-17T07:29:20.309Z,4.30
2023-01-17T07:31:48.524Z,4.23
2023-01-17T07:34:14.896Z,4.15
2023-01-17T07:36:41.248Z,4.08
2023-01-17T07:39:10.980Z,4.02
2023-01-17T07:41:41.261Z,3.95
2023-01-17T07:44:08.432Z,3.89
2023-01-17T07:46:34.791Z,3.85
2023-01-17T07:49:01.463Z,3.80
2023-01-17T07:51:27.839Z,3.76
2023-01-17T07:53:54.197Z,3.72
2023-01-17T07:56:20.583Z,3.71
2023-01-17T07:58:48.418Z,3.70
2023-01-17T08:01:15.497Z,3.72
2023-01-17T08:03:42.350Z,3.72
2023-01-17T08:06:22.203Z,3.75
2023-01-17T08:08:48.794Z,3.76
2023-01-17T08:11:15.259Z,3.78
2023-01-17T08:13:42.008Z,3.80
2023-01-17T08:16:10.362Z,3.82
2023-01-17T08:18:36.786Z,3.84
2023-01-17T08:21:03.835Z,3.86
2023-01-17T08:23:31.491Z,3.86
2023-01-17T08:26:01.893Z,3.88
2023-01-17T08:28:28.325Z,3.89
2023-01-17T08:30:54.698Z,3.92
2023-01-17T08:33:21.041Z,3.96
2023-01-17T08:35:54.427Z,4.03
2023-01-17T08:38:23.556Z,4.08
2023-01-17T08:40:50.904Z,4.15
2023-01-17T08:43:17.452Z,4.21
2023-01-17T08:45:48.394Z,4.28
2023-01-17T08:48:15.600Z,4.33
2023-01-17T08:50:41.968Z,4.37
2023-01-17T08:53:08.323Z,4.42
2023-01-17T08:55:39.384Z,4.48
2023-01-17T08:58:05.713Z,4.54
2023-01-17T09:00:32.534Z,4.58
2023-01-17T09:02:59.363Z,4.63
2023-01-17T09:05:25.740Z,4.68
2023-01-17T09:07:52.143Z,4.72
2023-01-17T09:10:18.794Z,4.77
2023-01-17T09:12:45.133Z,4.82
2023-01-17T09:15:14.576Z,4.87
2023-01-17T09:17:40.930Z,4.91
2023-01-17T09:20:08.173Z,4.93
2023-01-17T09:22:35.915Z,4.95
2023-01-17T09:25:02.254Z,4.97
2023-01-17T09:27:28.579Z,4.99
2023-01-17T09:29:54.931Z,5.00
2023-01-17T09:32:21.298Z,5.04
2023-01-17T09:34:47.685Z,5.08
2023-01-17T09:37:14.022Z,5.14
2023-01-17T09:39:40.328Z,5.18
2023-01-17T09:42:21.830Z,5.23
2023-01-17T09:44:52.175Z,5.27
2023-01-17T09:47:43.470Z,5.32
2023-01-17T09:50:39.395Z,5.35
2023-01-17T09:53:12.459Z,5.38
2023-01-17T09:55:54.975Z,5.41
2023-01-17T09:58:32.324Z,5.46
2023-01-17T10:01:24.189Z,5.50
2023-01-17T10:04:11.722Z,5.52
2023-01-17T10:06:44.150Z,5.51
2023-01-17T10:09:22.841Z,5.50
2023-01-17T10:12:30.696Z,5.50
2023-01-17T10:15:32.097Z,5.52
2023-01-17T10:18:04.498Z,5.57
2023-01-17T10:20:50.644Z,5.60
2023-01-17T10:23:25.969Z,5.66
2023-01-17T10:25:56.289Z,5.68
2023-01-17T10:28:30.696Z,5.73
2023-01-17T10:31:25.464Z,5.76
2023-01-17T10:33:54.930Z,5.80
2023-01-17T10:36:47.182Z,5.83
2023-01-17T10:39:22.420Z,5.88
2023-01-17T10:42:02.797Z,5.94
2023-01-17T10:44:55.091Z,6.00
2023-01-17T10:47:23.712Z,6.06
2023-01-17T10:49:57.770Z,6.13
2023-01-17T10:52:34.649Z,6.21
2023-01-17T10:55:19.493Z,6.29
2023-01-17T10:57:48.544Z,6.34
2023-01-17T11:00:39.852Z,6.39
2023-01-17T11:03:06.913Z,6.44
2023-01-17T11:05:33.807Z,6.45
2023-01-17T11:08:06.312Z,6.47
2023-01-17T11:10:43.039Z,6.49
2023-01-17T11:13:26.559Z,6.50
2023-01-17T11:15:57.530Z,6.52
2023-01-17T11:18:28.103Z,6.55
2023-01-17T11:21:09.450Z,6.62
2023-01-17T11:23:36.020Z,6.66
2023-01-17T11:26:16.557Z,6.69
2023-01-17T11:28:42.933Z,6.72
2023-01-17T11:31:29.477Z,6.74
2023-01-17T11:34:23.858Z,6.75
2023-01-17T11:37:08.492Z,6.77
2023-01-17T11:39:35.163Z,6.78
2023-01-17T11:42:06.232Z,6.82
2023-01-17T11:44:35.708Z,6.85
2023-01-17T11:47:09.537Z,6.88
2023-01-17T11:49:36.239Z,6.92
2023-01-17T11:52:33.320Z,6.94
2023-01-17T11:54:59.884Z,6.95
2023-01-17T11:57:29.440Z,6.95
2023-01-17T12:00:11.862Z,6.96
2023-01-17T12:03:04.845Z,6.98
2023-01-17T12:05:48.140Z,7.01
2023-01-17T12:08:46.303Z,7.04
2023-01-17T12:12:00.719Z,7.10
2023-01-17T12:14:40.378Z,7.18
2023-01-17T12:17:42.221Z,7.27
2023-01-17T12:20:21.266Z,7.32
2023-01-17T12:23:01.549Z,7.35
2023-01-17T12:25:39.708Z,7.35
2023-01-17T12:28:27.378Z,7.33
2023-01-17T12:31:14.318Z,7.31
2023-01-17T12:33:47.343Z,7.28
2023-01-17T12:36:34.924Z,7.24
2023-01-17T12:39:05.740Z,7.19
2023-01-17T12:41:38.426Z,7.14
2023-01-17T12:44:05.371Z,7.08
2023-01-17T12:46:40.617Z,7.00
2023-01-17T12:49:41.478Z,6.96
2023-01-17T12:52:19.993Z,6.89
2023-01-17T12:54:53.150Z,6.83
2023-01-17T12:57:27.188Z,6.77
2023-01-17T13:00:03.578Z,6.74
2023-01-17T13:02:56.633Z,6.71
2023-01-17T13:05:45.855Z,6.69
2023-01-17T13:08:38.738Z,6.69
2023-01-17T13:11:14.274Z,6.71
2023-01-17T13:13:41.236Z,6.71
2023-01-17T13:16:19.856Z,6.73
2023-01-17T13:18:48.595Z,6.74
2023-01-17T13:21:23.977Z,6.74
2023-01-17T13:23:59.445Z,6.74
2023-01-17T13:26:53.772Z,6.75
2023-01-17T13:29:56.583Z,6.74
2023-01-17T13:33:01.501Z,6.73
2023-01-17T13:35:42.636Z,6.72
2023-01-17T13:38:15.634Z,6.71
2023-01-17T13:40:50.282Z,6.71
2023-01-17T13:43:28.216Z,6.71
2023-01-17T13:46:01.316Z,6.70
2023-01-17T13:48:31.113Z,6.68
2023-01-17T13:50:59.601Z,6.69
2023-01-17T13:53:28.807Z,6.69
2023-01-17T13:56:18.447Z,6.70
2023-01-17T13:58:51.655Z,6.69
2023-01-17T14:01:24.305Z,6.67
2023-01-17T14:03:53.482Z,6.65
2023-01-17T14:06:40.624Z,6.60
2023-01-17T14:09:12.772Z,6.55
2023-01-17T14:12:05.856Z,6.50
2023-01-17T14:14:41.504Z,6.43
2023-01-17T14:17:23.456Z,6.38
2023-01-17T14:20:06.463Z,6.32
2023-01-17T14:22:41.484Z,6.25
2023-01-17T14:25:20.021Z,6.18
2023-01-17T14:27:53.210Z,6.12
2023-01-17T14:30:31.822Z,6.06
2023-01-17T14:33:01.292Z,6.01
2023-01-17T14:35:30.955Z,5.96
2023-01-17T14:38:05.613Z,5.92
2023-01-17T14:40:34.110Z,5.88
2023-01-17T14:43:02.699Z,5.84
2023-01-17T14:45:32.050Z,5.80
2023-01-17T14:48:00.825Z,5.76
2023-01-17T14:50:38.317Z,5.72
2023-01-17T14:53:13.784Z,5.68
2023-01-17T14:55:52.158Z,5.65
2023-01-17T14:58:21.096Z,5.62
2023-01-17T15:00:50.067Z,5.61
2023-01-17T15:03:16.916Z,5.59
2023-01-17T15:05:46.909Z,5.62
2023-01-17T15:08:16.984Z,5.62
2023-01-17T15:11:02.905Z,5.65
2023-01-17T15:13:44.381Z,5.68
2023-01-17T15:16:28.055Z,5.70
2023-01-17T15:18:55.745Z,5.70
2023-01-17T15:21:26.334Z,5.72
2023-01-17T15:23:59.292Z,5.70
2023-01-17T15:26:28.564Z,5.69
2023-01-17T15:29:04.074Z,5.66
2023-01-17T15:31:44.467Z,5.62
2023-01-17T15:34:38.633Z,5.57
2023-01-17T15:37:23.142Z,5.50
2023-01-17T15:39:49.803Z,5.45
2023-01-17T15:42:23.717Z,5.38
2023-01-17T15:44:55.903Z,5.31
2023-01-17T15:47:32.928Z,5.23
2023-01-17T15:50:01.445Z,5.14
2023-01-17T15:52:28.884Z,5.07
2023-01-17T15:55:10.732Z,5.02
2023-01-17T15:57:38.799Z,4.96
2023-01-17T16:00:20.708Z,4.88
2023-01-17T16:02:55.236Z,4.83
2023-01-17T16:05:21.900Z,4.78
2023-01-17T16:08:18.527Z,4.72
2023-01-17T16:10:45.051Z,4.64
2023-01-17T16:13:13.521Z,4.59
2023-01-17T16:15:41.426Z,4.52
2023-01-17T16:18:16.472Z,4.46
2023-01-17T16:20:58.787Z,4.39
2023-01-17T16:23:25.770Z,4.33
2023-01-17T16:25:53.885Z,4.28
2023-01-17T16:28:20.784Z,4.23
2023-01-17T16:30:48.544Z,4.18
2023-01-17T16:33:15.734Z,4.14
2023-01-17T16:35:42.965Z,4.09
2023-01-17T16:38:15.459Z,4.05
2023-01-17T16:40:44.412Z,4.03
2023-01-17T16:43:12.129Z,3.98
2023-01-17T16:45:44.865Z,3.96
2023-01-17T16:48:14.138Z,3.92
2023-01-17T16:50:42.577Z,3.88
2023-01-17T16:53:08.921Z,3.84
2023-01-17T16:55:35.386Z,3.81
2023-01-17T16:58:01.755Z,3.76
2023-01-17T17:00:28.077Z,3.72
2023-01-17T17:02:54.948Z,3.68
2023-01-17T17:05:21.569Z,3.65
2023-01-17T17:07:50.728Z,3.61
2023-01-17T17:10:19.760Z,3.57
2023-01-17T17:12:46.651Z,3.54
2023-01-17T17:15:13.623Z,3.51
2023-01-17T17:17:41.704Z,3.48
2023-01-17T17:20:13.581Z,3.46
2023-01-17T17:22:49.125Z,3.45
2023-01-17T17:25:15.886Z,3.44
2023-01-17T17:27:42.306Z,3.42
2023-01-17T17:30:09.575Z,3.43
2023-01-17T17:32:35.910Z,3.40
2023-01-17T17:35:02.293Z,3.39
2023-01-17T17:37:29.078Z,3.36
2023-01-17T17:39:56.251Z,3.32
2023-01-17T17:42:23.166Z,3.28
2023-01-17T17:44:49.559Z,3.25
2023-01-17T17:47:16.301Z,3.20
2023-01-17T17:49:43.388Z,3.16
2023-01-17T17:52:09.852Z,3.12
2023-01-17T17:54:36.426Z,3.08
2023-01-17T17:57:03.215Z,3.04
2023-01-17T17:59:31.000Z,2.99
2023-01-17T18:01:58.686Z,2.97
2023-01-17T18:04:25.467Z,2.93
2023-01-17T18:06:56.950Z,2.90
2023-01-17T18:09:23.659Z,2.84
2023-01-17T18:11:50.047Z,2.80
2023-01-17T18:14:17.627Z,2.78
2023-01-17T18:16:44.775Z,2.75
2023-01-17T18:19:15.453Z,2.71
2023-01-17T18:21:42.156Z,2.67
2023-01-17T18:24:11.366Z,2.62
2023-01-17T18:26:50.723Z,2.58
2023-01-17T18:29:19.573Z,2.54
2023-01-17T18:31:47.297Z,2.49
2023-01-17T18:34:16.124Z,2.44
2023-01-17T18:36:43.387Z,2.40
2023-01-17T18:39:15.473Z,2.35
2023-01-17T18:41:41.854Z,2.30
2023-01-17T18:44:08.508Z,2.27
2023-01-17T18:46:35.826Z,2.22
2023-01-17T18:49:03.634Z,2.18
2023-01-17T18:51:32.613Z,2.15
2023-01-17T18:54:02.762Z,2.11
2023-01-17T18:56:31.937Z,2.08
2023-01-17T18:58:58.401Z,2.05
2023-01-17T19:01:27.516Z,2.03
2023-01-17T19:03:57.630Z,2.01
2023-01-17T19:06:30.354Z,1.96
2023-01-17T19:08:58.624Z,1.94
2023-01-17T19:11:25.339Z,1.90
2023-01-17T19:13:53.099Z,1.88
2023-01-17T19:16:25.520Z,1.84
2023-01-17T19:18:52.621Z,1.81
2023-01-17T19:21:21.616Z,1.78
2023-01-17T19:23:49.215Z,1.75
2023-01-17T19:26:17.120Z,1.72
2023-01-17T19:28:45.474Z,1.69
2023-01-17T19:31:14.731Z,1.66
2023-01-17T19:33:44.089Z,1.63
2023-01-17T19:36:17.149Z,1.60
2023-01-17T19:38:52.290Z,1.58
2023-01-17T19:41:27.234Z,1.56
2023-01-17T19:43:55.951Z,1.53
2023-01-17T19:46:26.113Z,1.49
2023-01-17T19:48:53.772Z,1.48
2023-01-17T19:51:20.678Z,1.46
2023-01-17T19:53:47.129Z,1.44
2023-01-17T19:56:16.308Z,1.42
2023-01-17T19:58:44.341Z,1.40
2023-01-17T20:01:15.007Z,1.39
2023-01-17T20:03:44.277Z,1.36
2023-01-17T20:06:12.442Z,1.34
2023-01-17T20:08:38.805Z,1.30
2023-01-17T20:11:07.398Z,1.29
2023-01-17T20:13:33.998Z,1.26
2023-01-17T20:16:05.679Z,1.25
2023-01-17T20:18:33.044Z,1.22
2023-01-17T20:21:07.318Z,1.20
2023-01-17T20:23:42.865Z,1.17
2023-01-17T20:26:14.445Z,1.13
2023-01-17T20:28:42.585Z,1.10
2023-01-17T20:31:17.075Z,1.08
2023-01-17T20:33:45.259Z,1.05
2023-01-17T20:36:14.855Z,1.02
2023-01-17T20:38:45.786Z,1.01
2023-01-17T20:41:21.270Z,0.99
2023-01-17T20:43:48.835Z,0.99
2023-01-17T20:46:17.698Z,0.95
2023-01-17T20:48:49.095Z,0.91
2023-01-17T20:51:15.780Z,0.88
2023-01-17T20:53:43.411Z,0.85
2023-01-17T20:56:14.184Z,0.83
2023-01-17T20:58:40.830Z,0.81
2023-01-17T21:01:09.574Z,0.79
2023-01-17T21:03:37.550Z,0.79
2023-01-17T21:06:06.735Z,0.77
2023-01-17T21:08:37.060Z,0.76
2023-01-17T21:11:04.755Z,0.74
2023-01-17T21:13:31.665Z,0.73
2023-01-17T21:15:58.378Z,0.70
2023-01-17T21:18:26.405Z,0.70
2023-01-17T21:20:52.915Z,0.69
2023-01-17T21:23:20.082Z,0.66
2023-01-17T21:25:49.340Z,0.65
2023-01-17T21:28:15.744Z,0.64
2023-01-17T21:30:42.106Z,0.64
2023-01-17T21:33:08.506Z,0.63
2023-01-17T21:35:34.870Z,0.61
2023-01-17T21:38:01.252Z,0.61
2023-01-17T21:40:27.642Z,0.59
2023-01-17T21:42:54.108Z,0.57
2023-01-17T21:45:20.584Z,0.56
2023-01-17T21:47:49.875Z,0.54
2023-01-17T21:50:32.259Z,0.54
2023-01-17T21:52:59.462Z,0.51
2023-01-17T21:55:44.705Z,0.50
2023-01-17T21:58:31.577Z,0.48
2023-01-17T22:01:07.815Z,0.47
2023-01-17T22:03:35.670Z,0.45
2023-01-17T22:06:02.197Z,0.43
2023-01-17T22:08:37.971Z,0.41
2023-01-17T22:11:10.867Z,0.41
2023-01-17T22:13:39.214Z,0.38
2023-01-17T22:16:08.634Z,0.37
2023-01-17T22:18:37.133Z,0.36
2023-01-17T22:21:24.344Z,0.37
2023-01-17T22:23:53.343Z,0.38
2023-01-17T22:26:25.171Z,0.38
2023-01-17T22:28:52.348Z,0.40
2023-01-17T22:31:26.978Z,0.39
2023-01-17T22:33:55.889Z,0.40
2023-01-17T22:36:23.115Z,0.39
2023-01-17T22:38:50.572Z,0.39
2023-01-17T22:41:20.477Z,0.37
2023-01-17T22:43:49.501Z,0.35
2023-01-17T22:46:21.584Z,0.34
2023-01-17T22:48:48.589Z,0.33
2023-01-17T22:51:17.078Z,0.31
2023-01-17T22:53:45.781Z,0.30
2023-01-17T22:56:14.666Z,0.28
2023-01-17T22:58:44.571Z,0.26
2023-01-17T23:01:13.991Z,0.24
2023-01-17T23:03:41.618Z,0.22
2023-01-17T23:06:12.883Z,0.19
2023-01-17T23:08:41.184Z,0.16
2023-01-17T23:11:38.861Z,0.14
2023-01-17T23:14:16.956Z,0.12
2023-01-17T23:17:04.580Z,0.09
2023-01-17T23:19:36.651Z,0.07
2023-01-17T23:22:20.282Z,0.05
2023-01-17T23:24:55.686Z,0.02
2023-01-17T23:27:45.817Z,0.02
2023-01-17T23:30:39.331Z,-0.02
2023-01-17T23:33:17.071Z,-0.05
2023-01-17T23:35:45.686Z,-0.09
2023-01-17T23:38:26.061Z,-0.13
2023-01-17T23:41:12.104Z,-0.15
2023-01-17T23:43:38.526Z,-0.17
2023-01-17T23:46:05.263Z,-0.18
2023-01-17T23:48:31.936Z,-0.20
2023-01-17T23:51:00.220Z,-0.21
2023-01-17T23:53:27.357Z,-0.22
2023-01-17T23:55:56.329Z,-0.22
2023-01-17T23:58:25.529Z,-0.22
